Time;durP1;ratioP1;P1;durP2;ratioP2;P2;SDS_P1;SDS_P2;PMS_P1;PMS_P2;Temp;Humidity;BMP_temperature;BMP_pressure;BME280_temperature;BME280_humidity;BME280_pressure;Samples;Min_cycle;Max_cycle;Signal;HPM_P1;HPM_P2
2021/12/15 00:00:57;;;;;;;27.33;21.13;;;7.50;99.90;;;;;;5010567;28;20201;-73
2021/12/15 00:03:24;;;;;;;28.98;23.23;;;7.50;99.90;;;;;;5011210;28;20929;-74
2021/12/15 00:05:51;;;;;;;29.83;22.48;;;7.50;99.90;;;;;;5011463;28;20264;-74
2021/12/15 00:08:18;;;;;;;30.70;22.27;;;7.50;99.90;;;;;;5011021;28;20229;-74
2021/12/15 00:10:48;;;;;;;28.38;21.55;;;7.50;99.90;;;;;;5011286;28;20194;-74
2021/12/15 00:13:16;;;;;;;27.85;21.95;;;7.50;99.90;;;;;;5010993;28;20342;-73
2021/12/15 00:15:44;;;;;;;31.33;22.67;;;7.50;99.90;;;;;;5011415;28;20705;-74
2021/12/15 00:18:13;;;;;;;30.58;22.52;;;7.50;99.90;;;;;;5009624;28;20676;-74
2021/12/15 00:20:41;;;;;;;30.30;22.27;;;7.50;99.90;;;;;;5012065;28;20202;-74
2021/12/15 00:23:09;;;;;;;28.38;22.30;;;7.50;99.90;;;;;;5011252;28;20198;-74
2021/12/15 00:25:40;;;;;;;28.38;21.67;;;7.50;99.90;;;;;;5010800;28;20585;-74
2021/12/15 00:28:08;;;;;;;28.40;21.35;;;7.50;99.90;;;;;;5007257;28;20195;-74
2021/12/15 00:30:35;;;;;;;34.80;23.08;;;7.50;99.90;;;;;;5010471;28;20684;-73
2021/12/15 00:33:02;;;;;;;27.10;20.70;;;7.50;99.90;;;;;;5010847;28;20241;-73
2021/12/15 00:35:31;;;;;;;27.60;21.98;;;7.50;99.90;;;;;;5009699;28;20699;-74
2021/12/15 00:37:57;;;;;;;31.90;23.10;;;7.50;99.90;;;;;;5011152;28;20186;-74
2021/12/15 00:40:26;;;;;;;32.88;23.02;;;7.50;99.90;;;;;;5010487;28;20194;-74
2021/12/15 00:42:53;;;;;;;29.33;21.40;;;7.60;99.90;;;;;;5011227;28;20615;-73
2021/12/15 00:45:20;;;;;;;28.33;21.60;;;7.60;99.90;;;;;;5010149;28;20225;-74
2021/12/15 00:47:47;;;;;;;31.10;21.70;;;7.60;99.90;;;;;;5010097;28;20195;-74
2021/12/15 00:50:17;;;;;;;29.05;20.95;;;7.60;99.90;;;;;;5011514;28;20253;-74
2021/12/15 00:52:46;;;;;;;29.67;20.58;;;7.60;99.90;;;;;;5011407;28;20225;-73
2021/12/15 00:55:16;;;;;;;29.00;20.77;;;7.60;99.90;;;;;;5009212;28;20566;-74
2021/12/15 00:57:43;;;;;;;28.00;21.10;;;7.60;99.90;;;;;;5010721;28;20191;-74
2021/12/15 01:00:14;;;;;;;30.33;22.25;;;7.70;99.90;;;;;;5010584;28;20193;-74
2021/12/15 01:02:41;;;;;;;26.95;20.80;;;7.70;99.90;;;;;;5009751;28;20205;-74
2021/12/15 01:05:11;;;;;;;28.33;19.45;;;7.80;99.90;;;;;;5011067;28;20213;-74
2021/12/15 01:07:38;;;;;;;32.35;22.20;;;7.80;99.90;;;;;;5011025;28;20242;-74
2021/12/15 01:10:08;;;;;;;32.95;21.60;;;7.90;99.90;;;;;;5008906;28;20195;-74
2021/12/15 01:12:50;;;;;;;31.73;22.85;;;7.90;99.90;;;;;;5011411;28;20237;-73
2021/12/15 01:21:01;;;;;;;32.08;20.58;;;7.90;99.90;;;;;;5014194;28;20197;-73
2021/12/15 01:23:31;;;;;;;30.45;19.63;;;7.90;99.90;;;;;;5014568;28;20252;-74
2021/12/15 01:26:02;;;;;;;27.02;20.42;;;7.90;99.90;;;;;;5012893;28;20221;-73
2021/12/15 01:28:30;;;;;;;31.52;21.05;;;7.90;99.90;;;;;;5013689;28;20198;-73
2021/12/15 01:30:59;;;;;;;37.28;21.27;;;7.90;99.90;;;;;;5013084;28;20531;-74
2021/12/15 01:33:28;;;;;;;31.45;20.02;;;7.70;99.90;;;;;;5014232;28;20689;-73
2021/12/15 01:35:57;;;;;;;32.05;21.00;;;7.70;99.90;;;;;;5013662;28;20271;-73
2021/12/15 01:38:28;;;;;;;29.35;18.63;;;7.60;99.90;;;;;;5013975;28;20205;-73
2021/12/15 01:40:56;;;;;;;28.13;18.95;;;7.60;99.90;;;;;;5012814;28;20203;-74
2021/12/15 01:43:36;;;;;;;29.30;19.25;;;7.60;99.90;;;;;;5014328;28;20194;-74
2021/12/15 01:48:57;;;;;;;30.30;20.05;;;7.60;99.90;;;;;;4968793;28;20191;-73
2021/12/15 01:51:24;;;;;;;30.00;20.02;;;7.60;99.90;;;;;;4999258;28;20306;-74
2021/12/15 01:53:51;;;;;;;31.70;20.80;;;7.60;99.90;;;;;;5013852;28;20230;-73
2021/12/15 01:56:18;;;;;;;36.22;22.77;;;7.50;99.90;;;;;;5012085;28;20728;-73
2021/12/15 01:58:47;;;;;;;37.10;23.35;;;7.50;99.90;;;;;;5013332;28;20721;-73
2021/12/15 02:01:14;;;;;;;36.35;23.02;;;7.40;99.90;;;;;;5013704;28;20289;-74
2021/12/15 02:03:41;;;;;;;36.50;23.00;;;7.40;99.90;;;;;;5013699;28;20213;-74
2021/12/15 02:06:10;;;;;;;39.80;23.50;;;7.30;99.90;;;;;;5013726;28;20218;-74
2021/12/15 02:08:38;;;;;;;37.80;22.73;;;7.40;99.90;;;;;;5013024;28;20641;-73
2021/12/15 02:11:05;;;;;;;40.00;25.23;;;7.30;99.90;;;;;;5011466;28;20205;-74
2021/12/15 02:13:33;;;;;;;40.20;24.85;;;7.40;99.90;;;;;;5013041;28;20574;-74
2021/12/15 02:16:03;;;;;;;36.10;22.67;;;7.30;99.90;;;;;;5014003;28;20223;-73
2021/12/15 02:18:33;;;;;;;39.40;24.02;;;7.30;99.90;;;;;;5012701;28;20294;-72
2021/12/15 02:21:04;;;;;;;38.35;23.05;;;7.30;99.90;;;;;;5011507;28;20562;-73
2021/12/15 02:23:38;;;;;;;39.03;25.38;;;7.30;99.90;;;;;;5013062;28;20187;-72
2021/12/15 02:26:08;;;;;;;40.88;24.77;;;7.30;99.90;;;;;;5012089;28;20268;-72
2021/12/15 02:28:37;;;;;;;36.75;23.45;;;7.40;99.90;;;;;;5012723;28;20214;-72
2021/12/15 02:31:12;;;;;;;39.65;25.27;;;7.30;99.90;;;;;;5013276;28;20685;-73
2021/12/15 02:33:53;;;;;;;39.58;23.10;;;7.30;99.90;;;;;;5013062;28;20222;-72
2021/12/15 02:39:09;;;;;;;38.20;22.55;;;7.30;99.90;;;;;;5000115;28;20198;-73
2021/12/15 02:41:37;;;;;;;40.22;23.42;;;7.30;99.90;;;;;;5001335;28;20592;-73
2021/12/15 02:44:08;;;;;;;39.28;23.35;;;7.30;99.90;;;;;;5003140;28;20217;-73
2021/12/15 02:46:38;;;;;;;43.83;24.52;;;7.30;99.90;;;;;;5006237;28;20223;-73
2021/12/15 02:49:08;;;;;;;39.15;23.38;;;7.30;99.90;;;;;;5012421;28;20638;-73
2021/12/15 02:51:39;;;;;;;40.65;25.80;;;7.30;99.90;;;;;;5012645;28;20186;-73
2021/12/15 02:54:08;;;;;;;40.03;24.17;;;7.30;99.90;;;;;;5012203;28;20226;-73
2021/12/15 02:56:36;;;;;;;38.55;25.15;;;7.30;99.90;;;;;;5010950;28;20226;-73
2021/12/15 02:59:05;;;;;;;35.20;23.85;;;7.40;99.90;;;;;;5012048;28;20206;-73
2021/12/15 03:01:39;;;;;;;33.88;22.38;;;7.40;99.90;;;;;;5012093;28;20190;-72
2021/12/15 03:04:25;;;;;;;38.40;24.70;;;7.30;99.90;;;;;;5012494;28;20202;-73
2021/12/15 03:06:56;;;;;;;33.22;22.23;;;7.30;99.90;;;;;;4996702;28;20301;-73
2021/12/15 03:17:39;;;;;;;36.75;22.27;;;7.30;99.90;;;;;;5010063;28;20654;-73
2021/12/15 03:20:09;;;;;;;35.92;23.80;;;7.30;99.90;;;;;;5010742;28;20654;-73
2021/12/15 03:22:38;;;;;;;32.90;22.13;;;7.40;99.90;;;;;;5011761;28;20281;-73
2021/12/15 03:25:07;;;;;;;36.10;23.63;;;7.40;99.90;;;;;;5011829;28;20220;-72
2021/12/15 03:35:59;;;;;;;38.05;24.63;;;7.50;99.90;;;;;;5008959;28;20214;-73
2021/12/15 03:38:29;;;;;;;38.25;24.70;;;7.50;99.90;;;;;;5010760;28;20216;-73
2021/12/15 03:40:56;;;;;;;39.28;25.20;;;7.40;99.90;;;;;;5009091;28;20199;-73
2021/12/15 03:43:24;;;;;;;38.08;25.17;;;7.50;99.90;;;;;;5011402;28;20294;-72
2021/12/15 03:45:54;;;;;;;39.95;24.85;;;7.40;99.90;;;;;;5011192;28;20241;-72
2021/12/15 03:48:24;;;;;;;38.22;24.50;;;7.40;99.90;;;;;;5011602;28;20290;-72
2021/12/15 03:50:52;;;;;;;39.28;25.85;;;7.30;99.90;;;;;;5011463;28;20550;-72
2021/12/15 03:53:19;;;;;;;40.13;24.65;;;7.30;99.90;;;;;;5012137;28;20346;-73
2021/12/15 03:55:48;;;;;;;36.03;23.08;;;7.30;99.90;;;;;;5009165;28;20214;-72
2021/12/15 03:58:16;;;;;;;35.72;22.40;;;7.20;99.90;;;;;;5011315;28;20286;-72
2021/12/15 04:00:46;;;;;;;36.67;24.45;;;7.20;99.90;;;;;;5009662;28;20721;-72
2021/12/15 04:03:18;;;;;;;33.45;22.40;;;7.20;99.90;;;;;;5011066;28;20194;-72
2021/12/15 04:05:45;;;;;;;38.97;25.27;;;7.20;99.90;;;;;;5011184;28;20215;-72
2021/12/15 04:08:12;;;;;;;39.05;25.75;;;7.20;99.90;;;;;;5011295;28;20205;-72
2021/12/15 04:10:39;;;;;;;36.08;24.75;;;7.20;99.90;;;;;;5010586;28;20190;-72
2021/12/15 04:13:09;;;;;;;37.17;25.40;;;7.20;99.90;;;;;;5008108;28;20701;-73
2021/12/15 04:15:43;;;;;;;36.15;23.95;;;7.10;99.90;;;;;;5008408;28;20233;-76
2021/12/15 04:18:11;;;;;;;41.20;26.05;;;7.10;99.90;;;;;;5001007;28;20959;-74
2021/12/15 04:20:41;;;;;;;42.22;26.75;;;7.10;99.90;;;;;;4993791;28;20714;-75
2021/12/15 04:23:10;;;;;;;38.83;25.73;;;7.10;99.90;;;;;;5010708;28;20661;-73
2021/12/15 04:25:40;;;;;;;41.80;26.60;;;7.10;99.90;;;;;;5007890;28;20704;-73
2021/12/15 04:28:12;;;;;;;37.58;24.20;;;7.10;99.90;;;;;;5002695;28;20199;-73
2021/12/15 04:30:43;;;;;;;38.88;25.33;;;7.10;99.90;;;;;;5006181;28;20218;-73
2021/12/15 04:33:13;;;;;;;37.63;24.23;;;7.20;99.90;;;;;;5009062;28;20226;-73
2021/12/15 04:35:41;;;;;;;38.33;26.30;;;7.20;99.90;;;;;;5010435;28;20740;-73
2021/12/15 04:38:09;;;;;;;36.10;24.63;;;7.20;99.90;;;;;;5004239;28;20646;-73
2021/12/15 04:40:36;;;;;;;33.53;24.58;;;7.30;99.90;;;;;;5009913;28;20198;-73
2021/12/15 04:43:04;;;;;;;36.75;25.70;;;7.30;99.90;;;;;;5005765;28;20234;-74
2021/12/15 04:45:32;;;;;;;37.08;25.00;;;7.30;99.90;;;;;;5010502;28;20313;-73
2021/12/15 04:47:59;;;;;;;38.72;26.85;;;7.30;99.90;;;;;;5007409;28;20257;-74
2021/12/15 04:50:30;;;;;;;36.50;25.77;;;7.30;99.90;;;;;;5013735;28;20266;-73
2021/12/15 04:52:59;;;;;;;36.47;25.77;;;7.30;99.90;;;;;;5010667;28;20213;-73
2021/12/15 04:55:28;;;;;;;34.95;25.13;;;7.20;99.90;;;;;;5010426;28;20214;-74
2021/12/15 04:57:55;;;;;;;36.15;24.15;;;7.20;99.90;;;;;;5005700;28;20198;-74
2021/12/15 05:00:26;;;;;;;32.53;23.80;;;7.30;99.90;;;;;;5013985;28;20642;-73
2021/12/15 05:02:54;;;;;;;34.92;25.65;;;7.30;99.90;;;;;;5013479;28;20287;-73
2021/12/15 05:05:23;;;;;;;34.88;23.25;;;7.20;99.90;;;;;;5010677;28;20223;-74
2021/12/15 05:07:51;;;;;;;32.72;24.30;;;7.20;99.90;;;;;;5003367;28;20195;-73
2021/12/15 05:10:20;;;;;;;33.58;23.70;;;7.30;99.90;;;;;;5012384;28;20198;-73
2021/12/15 05:12:47;;;;;;;32.75;23.00;;;7.30;99.90;;;;;;5010581;28;20199;-73
2021/12/15 05:15:14;;;;;;;31.80;23.10;;;7.30;99.90;;;;;;5004946;28;20589;-74
2021/12/15 05:17:41;;;;;;;30.25;22.73;;;7.30;99.90;;;;;;5011805;28;20198;-73
2021/12/15 05:20:11;;;;;;;30.88;22.85;;;7.30;99.90;;;;;;5013799;28;20194;-73
2021/12/15 05:22:39;;;;;;;33.42;24.75;;;7.30;99.90;;;;;;5012853;28;20198;-73
2021/12/15 05:25:09;;;;;;;32.70;23.60;;;7.30;99.90;;;;;;5013593;28;20310;-73
2021/12/15 05:27:36;;;;;;;30.67;22.73;;;7.30;99.90;;;;;;5012856;28;20203;-73
2021/12/15 05:30:06;;;;;;;32.15;23.40;;;7.30;99.90;;;;;;5005324;28;20198;-73
2021/12/15 05:32:33;;;;;;;31.67;23.38;;;7.30;99.90;;;;;;5005150;28;20310;-73
2021/12/15 05:35:00;;;;;;;33.88;22.98;;;7.40;99.90;;;;;;5008659;28;20234;-73
2021/12/15 05:37:29;;;;;;;27.67;22.20;;;7.30;99.90;;;;;;5013046;28;20213;-73
2021/12/15 05:39:57;;;;;;;30.60;21.85;;;7.40;99.90;;;;;;4995840;28;20223;-73
2021/12/15 05:42:26;;;;;;;27.88;23.02;;;7.40;99.90;;;;;;5012661;28;20437;-74
2021/12/15 05:44:54;;;;;;;31.05;22.35;;;7.40;99.90;;;;;;5011921;28;20586;-74
2021/12/15 05:47:21;;;;;;;28.55;22.73;;;7.40;99.90;;;;;;4983980;28;20203;-74
2021/12/15 05:49:49;;;;;;;33.78;24.27;;;7.40;99.90;;;;;;5000032;28;20573;-73
2021/12/15 05:52:16;;;;;;;30.25;23.20;;;7.40;99.90;;;;;;4997071;28;20309;-73
2021/12/15 05:54:45;;;;;;;31.70;23.05;;;7.30;99.90;;;;;;5003404;28;20223;-74
2021/12/15 05:57:12;;;;;;;29.67;22.45;;;7.30;99.90;;;;;;5005637;28;20209;-74
2021/12/15 05:59:40;;;;;;;29.30;22.05;;;7.30;99.90;;;;;;5008470;28;20202;-74
2021/12/15 06:02:08;;;;;;;29.63;23.58;;;7.30;99.90;;;;;;4998183;28;20204;-74
2021/12/15 06:04:35;;;;;;;27.77;21.60;;;7.30;99.90;;;;;;4999420;28;20246;-73
2021/12/15 06:07:03;;;;;;;29.73;22.70;;;7.30;99.90;;;;;;5007794;28;20283;-73
2021/12/15 06:09:30;;;;;;;27.27;21.25;;;7.30;99.90;;;;;;5012220;28;20205;-73
2021/12/15 06:12:00;;;;;;;28.92;22.75;;;7.30;99.90;;;;;;5008643;28;20195;-73
2021/12/15 06:14:28;;;;;;;27.15;20.58;;;7.30;99.90;;;;;;4993728;28;20227;-73
2021/12/15 06:16:59;;;;;;;23.98;20.17;;;7.30;99.90;;;;;;4996535;28;20306;-73
2021/12/15 06:19:26;;;;;;;26.67;20.92;;;7.30;99.90;;;;;;5003136;28;20207;-74
2021/12/15 06:21:53;;;;;;;24.75;19.02;;;7.30;99.90;;;;;;5009997;28;20211;-81
2021/12/15 06:24:20;;;;;;;24.52;18.92;;;7.30;99.90;;;;;;5006044;28;20605;-73
2021/12/15 06:26:47;;;;;;;26.00;20.25;;;7.30;99.90;;;;;;5011685;28;20202;-73
2021/12/15 06:29:16;;;;;;;26.20;19.52;;;7.30;99.90;;;;;;5008810;28;20202;-73
2021/12/15 06:31:43;;;;;;;26.23;19.85;;;7.30;99.90;;;;;;5009769;28;20635;-73
2021/12/15 06:34:10;;;;;;;25.63;19.42;;;7.30;99.90;;;;;;5011713;28;20222;-73
2021/12/15 06:36:37;;;;;;;24.60;19.85;;;7.30;99.90;;;;;;5010481;28;20222;-73
2021/12/15 06:39:06;;;;;;;24.98;19.70;;;7.30;99.90;;;;;;5009782;28;20202;-73
2021/12/15 06:41:33;;;;;;;24.38;19.80;;;7.20;99.90;;;;;;4999859;28;20198;-73
2021/12/15 06:44:00;;;;;;;23.52;19.38;;;7.30;99.90;;;;;;5007942;28;20209;-73
2021/12/15 07:00:36;;;;;;;24.20;18.15;;;7.20;99.90;;;;;;4983721;28;20198;-73
2021/12/15 07:03:05;;;;;;;23.13;18.15;;;7.10;99.90;;;;;;5013137;28;20194;-73
2021/12/15 07:05:34;;;;;;;20.00;16.75;;;7.10;99.90;;;;;;5011117;28;20585;-74
2021/12/15 07:08:04;;;;;;;24.60;18.27;;;7.00;99.90;;;;;;5007880;28;20195;-73
2021/12/15 07:10:34;;;;;;;21.30;16.48;;;7.00;99.90;;;;;;5009801;28;20333;-74
2021/12/15 07:13:01;;;;;;;22.70;18.08;;;7.00;99.90;;;;;;5011991;28;20234;-73
2021/12/15 07:15:29;;;;;;;21.67;18.10;;;7.00;99.90;;;;;;5010915;28;20230;-75
2021/12/15 07:18:02;;;;;;;20.02;17.75;;;7.00;99.90;;;;;;5010901;28;20666;-73
2021/12/15 07:20:37;;;;;;;19.73;16.40;;;6.90;99.90;;;;;;5008046;28;20203;-73
2021/12/15 07:23:07;;;;;;;22.98;18.23;;;7.00;99.90;;;;;;5006450;28;20202;-73
2021/12/15 07:25:37;;;;;;;19.27;16.02;;;7.00;99.90;;;;;;5010435;28;20229;-73
2021/12/15 07:28:06;;;;;;;20.02;16.67;;;7.10;99.90;;;;;;5011532;28;20194;-73
2021/12/15 07:30:35;;;;;;;19.60;17.17;;;7.10;99.90;;;;;;5011322;28;20323;-73
2021/12/15 07:33:02;;;;;;;21.38;17.63;;;7.10;99.90;;;;;;5010408;28;20197;-73
2021/12/15 07:35:31;;;;;;;21.17;17.77;;;7.20;99.90;;;;;;5007860;28;20288;-73
2021/12/15 07:37:58;;;;;;;18.70;15.50;;;7.20;99.90;;;;;;5008726;28;20202;-73
2021/12/15 07:40:26;;;;;;;20.73;15.25;;;7.20;99.90;;;;;;5007236;28;20650;-73
2021/12/15 07:43:04;;;;;;;22.10;17.40;;;7.20;99.90;;;;;;5000635;28;20194;-73
2021/12/15 07:45:32;;;;;;;21.88;17.67;;;7.10;99.90;;;;;;5008638;28;20325;-73
2021/12/15 07:48:02;;;;;;;23.88;18.20;;;7.20;99.90;;;;;;5007973;28;20199;-73
2021/12/15 07:50:31;;;;;;;20.27;17.90;;;7.10;99.90;;;;;;5010050;28;20202;-73
2021/12/15 07:52:59;;;;;;;19.50;16.92;;;7.10;99.90;;;;;;5013061;28;20205;-73
2021/12/15 07:55:26;;;;;;;18.95;16.30;;;7.10;99.90;;;;;;5009840;28;20241;-73
2021/12/15 07:57:54;;;;;;;23.05;18.38;;;7.10;99.90;;;;;;5009081;28;20206;-73
2021/12/15 08:00:22;;;;;;;22.70;17.42;;;7.10;99.90;;;;;;5010695;28;20202;-73
2021/12/15 08:02:49;;;;;;;19.88;15.82;;;7.10;99.90;;;;;;5010514;28;20676;-73
2021/12/15 08:05:16;;;;;;;20.17;17.35;;;7.10;99.90;;;;;;5002728;28;20237;-73
2021/12/15 08:07:44;;;;;;;19.05;15.80;;;7.10;99.90;;;;;;5004601;28;20682;-73
2021/12/15 08:10:13;;;;;;;20.17;18.02;;;7.10;99.90;;;;;;5009065;28;20194;-73
2021/12/15 08:12:41;;;;;;;20.42;17.45;;;7.00;99.90;;;;;;5012597;28;20198;-73
2021/12/15 08:15:09;;;;;;;18.25;15.68;;;7.00;99.90;;;;;;5010001;28;20233;-73
2021/12/15 08:17:37;;;;;;;21.23;17.65;;;7.10;99.90;;;;;;5009622;28;20206;-73
2021/12/15 08:20:07;;;;;;;20.48;16.83;;;7.10;99.90;;;;;;5008341;28;20205;-73
2021/12/15 08:22:34;;;;;;;23.17;17.42;;;7.00;99.90;;;;;;5009596;28;20199;-73
2021/12/15 08:25:02;;;;;;;19.90;16.95;;;7.10;99.90;;;;;;5009935;28;20573;-73
2021/12/15 08:27:29;;;;;;;19.67;16.60;;;7.00;99.90;;;;;;5002337;28;20194;-73
2021/12/15 08:29:56;;;;;;;20.80;16.58;;;7.00;99.90;;;;;;5007480;28;20207;-73
2021/12/15 08:32:23;;;;;;;20.90;16.70;;;7.00;99.90;;;;;;4995312;28;20199;-73
2021/12/15 08:34:50;;;;;;;19.98;16.33;;;7.00;99.90;;;;;;4991775;28;20246;-73
2021/12/15 08:37:17;;;;;;;18.75;15.13;;;7.10;99.90;;;;;;5000760;28;20290;-73
2021/12/15 08:39:45;;;;;;;21.20;17.65;;;7.10;99.90;;;;;;4998510;28;20195;-73
2021/12/15 08:42:15;;;;;;;18.50;16.35;;;7.20;99.90;;;;;;5010387;28;20209;-73
2021/12/15 08:44:42;;;;;;;19.33;15.95;;;7.20;99.90;;;;;;5002415;28;20222;-73
2021/12/15 08:47:10;;;;;;;19.10;15.25;;;7.20;99.90;;;;;;5006363;28;22123;-73
2021/12/15 08:49:38;;;;;;;19.40;16.13;;;7.30;99.90;;;;;;5004605;28;20211;-73
2021/12/15 08:52:07;;;;;;;20.65;17.25;;;7.20;99.90;;;;;;5009788;28;20355;-73
2021/12/15 08:54:34;;;;;;;19.73;17.48;;;7.20;99.90;;;;;;5010058;28;20245;-73
2021/12/15 08:57:01;;;;;;;20.25;16.70;;;7.20;99.90;;;;;;5006606;28;20225;-74
2021/12/15 08:59:29;;;;;;;17.60;15.10;;;7.30;99.90;;;;;;5007132;28;20217;-73
2021/12/15 09:01:58;;;;;;;19.38;16.52;;;7.30;99.90;;;;;;5009849;28;20202;-73
2021/12/15 09:04:25;;;;;;;18.88;15.02;;;7.30;99.90;;;;;;5008231;28;20223;-73
2021/12/15 09:06:53;;;;;;;19.85;17.00;;;7.30;99.90;;;;;;4994840;28;20203;-73
2021/12/15 09:09:21;;;;;;;20.77;18.05;;;7.30;99.90;;;;;;4991297;28;20218;-73
2021/12/15 09:11:49;;;;;;;21.23;17.13;;;7.30;99.90;;;;;;5006242;28;20198;-73
2021/12/15 09:14:16;;;;;;;18.60;16.10;;;7.30;99.90;;;;;;5009944;28;20234;-73
2021/12/15 09:16:49;;;;;;;18.45;16.55;;;7.30;99.90;;;;;;5009063;28;20194;-73
2021/12/15 09:19:16;;;;;;;18.70;16.67;;;7.30;99.90;;;;;;4990859;28;20203;-73
2021/12/15 09:21:44;;;;;;;16.83;15.02;;;7.30;99.90;;;;;;4995057;28;20206;-73
2021/12/15 09:24:13;;;;;;;17.48;15.57;;;7.30;99.90;;;;;;5008538;28;20200;-73
2021/12/15 09:26:41;;;;;;;17.60;15.15;;;7.30;99.90;;;;;;5008679;28;20201;-73
2021/12/15 09:29:09;;;;;;;19.27;15.60;;;7.40;99.90;;;;;;5005368;28;20206;-73
2021/12/15 09:31:36;;;;;;;17.27;15.35;;;7.40;99.90;;;;;;5010120;28;20205;-73
2021/12/15 09:34:06;;;;;;;15.73;14.13;;;7.50;99.90;;;;;;5008352;28;20669;-73
2021/12/15 09:36:33;;;;;;;18.20;16.13;;;7.50;99.90;;;;;;4994235;28;20262;-73
2021/12/15 09:39:04;;;;;;;17.58;15.25;;;7.50;99.90;;;;;;5008994;28;20286;-73
2021/12/15 09:41:31;;;;;;;16.17;14.48;;;7.50;99.90;;;;;;5018072;28;20195;-73
2021/12/15 09:44:05;;;;;;;15.68;14.07;;;7.50;99.90;;;;;;5009051;28;20201;-74
2021/12/15 09:46:40;;;;;;;15.30;13.70;;;7.50;99.90;;;;;;5007595;28;20210;-74
2021/12/15 09:57:46;;;;;;;13.80;12.30;;;7.50;99.90;;;;;;5012244;28;20199;-73
2021/12/15 10:03:04;;;;;;;14.05;12.57;;;7.40;99.90;;;;;;5011475;28;20191;-73
2021/12/15 10:05:51;;;;;;;14.00;11.80;;;7.40;99.90;;;;;;5010656;28;20238;-73
2021/12/15 10:19:27;;;;;;;11.38;10.32;;;7.30;99.90;;;;;;5005269;28;20207;-73
2021/12/15 10:22:08;;;;;;;10.85;9.75;;;7.30;99.90;;;;;;5005483;28;20700;-73
2021/12/15 10:24:46;;;;;;;11.38;9.73;;;7.20;99.90;;;;;;5010340;28;20223;-75
2021/12/15 10:27:16;;;;;;;12.38;11.18;;;7.20;99.90;;;;;;5010299;28;20226;-73
2021/12/15 10:30:01;;;;;;;10.77;8.98;;;7.20;99.90;;;;;;5015740;28;20700;-73
2021/12/15 10:32:31;;;;;;;10.18;9.23;;;7.30;99.90;;;;;;5003303;28;20657;-73
2021/12/15 10:35:06;;;;;;;10.73;9.23;;;7.30;99.90;;;;;;5007212;28;20230;-75
2021/12/15 10:37:34;;;;;;;10.75;9.75;;;7.30;99.90;;;;;;4994514;28;20200;-73
2021/12/15 10:40:18;;;;;;;9.30;8.40;;;7.30;99.90;;;;;;5007765;28;20707;-73
2021/12/15 10:42:46;;;;;;;10.40;8.50;;;7.40;99.90;;;;;;5003558;28;20666;-73
2021/12/15 10:45:16;;;;;;;10.07;8.15;;;7.40;99.90;;;;;;5011090;28;20266;-73
2021/12/15 10:47:45;;;;;;;9.80;8.88;;;7.30;99.90;;;;;;5010682;28;20199;-73
2021/12/15 10:50:17;;;;;;;8.73;7.90;;;7.40;99.90;;;;;;4996129;28;20301;-74
2021/12/15 10:52:54;;;;;;;10.18;8.85;;;7.40;99.90;;;;;;5011359;28;20646;-73
2021/12/15 10:55:28;;;;;;;9.52;8.60;;;7.50;99.90;;;;;;5001170;28;20242;-73
2021/12/15 10:57:55;;;;;;;9.32;8.43;;;7.60;99.90;;;;;;5005836;28;20256;-73
2021/12/15 11:00:22;;;;;;;8.35;7.55;;;7.60;99.90;;;;;;5010499;28;20201;-73
2021/12/15 11:02:49;;;;;;;11.25;8.27;;;7.70;99.90;;;;;;5007543;28;20202;-73
2021/12/15 11:05:20;;;;;;;8.23;7.45;;;7.70;99.90;;;;;;5007680;28;20318;-74
2021/12/15 11:07:49;;;;;;;8.23;7.43;;;7.70;99.90;;;;;;5007511;28;20202;-73
2021/12/15 11:10:22;;;;;;;5.80;5.30;;;7.70;99.90;;;;;;5009942;28;20530;-73
2021/12/15 11:12:51;;;;;;;7.50;6.80;;;7.50;99.90;;;;;;5009644;28;20221;-73
2021/12/15 11:15:22;;;;;;;7.97;7.18;;;7.40;99.90;;;;;;5001693;28;20218;-73
2021/12/15 11:17:52;;;;;;;7.70;6.90;;;7.30;99.90;;;;;;5006617;28;20206;-73
2021/12/15 11:20:23;;;;;;;6.07;5.55;;;7.30;99.90;;;;;;5004204;28;20253;-73
2021/12/15 11:22:56;;;;;;;6.57;5.97;;;7.20;99.90;;;;;;5012150;28;20218;-73
2021/12/15 11:25:32;;;;;;;5.97;5.40;;;7.20;99.90;;;;;;5011478;28;20229;-75
2021/12/15 11:28:03;;;;;;;5.97;5.47;;;7.10;99.90;;;;;;4994832;28;20602;-73
2021/12/15 11:30:34;;;;;;;5.03;4.50;;;7.20;99.90;;;;;;5011481;28;20198;-73
2021/12/15 11:33:04;;;;;;;5.90;5.40;;;7.10;99.90;;;;;;5007687;28;20202;-73
2021/12/15 11:35:34;;;;;;;5.40;4.80;;;7.10;99.90;;;;;;4990159;28;20278;-73
2021/12/15 11:38:05;;;;;;;6.40;5.90;;;7.00;99.90;;;;;;4983225;28;20231;-73
2021/12/15 11:40:38;;;;;;;6.47;5.88;;;7.00;99.90;;;;;;5007268;28;20562;-74
2021/12/15 11:43:06;;;;;;;6.03;5.53;;;6.90;99.90;;;;;;4999978;28;20198;-73
2021/12/15 11:45:36;;;;;;;5.90;5.40;;;6.90;99.90;;;;;;5008871;28;20225;-73
2021/12/15 11:48:14;;;;;;;5.97;5.47;;;7.00;99.90;;;;;;5002937;28;20205;-74
2021/12/15 11:50:43;;;;;;;6.43;5.85;;;6.90;99.90;;;;;;5000552;28;20195;-73
2021/12/15 11:53:20;;;;;;;6.10;5.50;;;7.00;99.90;;;;;;5006635;28;20195;-73
2021/12/15 11:55:49;;;;;;;5.85;5.35;;;6.90;99.90;;;;;;4993682;28;20293;-74
2021/12/15 11:58:29;;;;;;;6.07;5.57;;;6.90;99.90;;;;;;4986613;28;20652;-73
2021/12/15 12:00:56;;;;;;;5.63;5.13;;;6.90;99.90;;;;;;5008793;28;20281;-73
2021/12/15 12:03:23;;;;;;;5.80;5.30;;;6.80;99.90;;;;;;5009464;28;20202;-74
2021/12/15 12:05:50;;;;;;;5.30;4.90;;;6.80;99.90;;;;;;5003588;28;20214;-74
2021/12/15 12:08:17;;;;;;;5.55;5.05;;;6.80;99.90;;;;;;5008773;28;20293;-73
2021/12/15 12:10:48;;;;;;;6.10;5.60;;;6.90;99.90;;;;;;5007000;28;20230;-73
2021/12/15 12:13:23;;;;;;;5.40;5.00;;;6.90;99.90;;;;;;5007222;28;20205;-73
2021/12/15 12:15:54;;;;;;;6.47;5.88;;;7.00;99.90;;;;;;4999100;28;20240;-74
2021/12/15 12:18:23;;;;;;;5.50;5.10;;;7.00;99.90;;;;;;5000038;28;20214;-74
2021/12/15 12:20:52;;;;;;;4.80;4.50;;;7.00;99.90;;;;;;4999376;28;20231;-74
2021/12/15 12:23:23;;;;;;;5.20;4.80;;;6.90;99.90;;;;;;5002052;28;20309;-74
2021/12/15 12:25:53;;;;;;;4.80;4.40;;;6.80;99.90;;;;;;5006325;28;20225;-74
2021/12/15 12:28:28;;;;;;;5.13;4.72;;;6.80;99.90;;;;;;5008358;28;20209;-75
2021/12/15 12:30:59;;;;;;;5.00;4.70;;;6.80;99.90;;;;;;4997479;28;20278;-74
2021/12/15 12:33:28;;;;;;;5.32;4.93;;;6.90;99.90;;;;;;5002170;28;20198;-81
2021/12/15 12:36:01;;;;;;;4.53;4.13;;;6.90;99.90;;;;;;4999785;28;20230;-80
2021/12/15 12:38:29;;;;;;;5.20;4.80;;;6.90;99.90;;;;;;5007611;28;20202;-80
2021/12/15 12:40:59;;;;;;;5.13;4.75;;;6.90;99.90;;;;;;5011332;28;20203;-79
2021/12/15 12:43:29;;;;;;;5.55;5.05;;;6.90;99.90;;;;;;5011727;28;20194;-79
2021/12/15 12:46:07;;;;;;;4.82;4.53;;;6.90;99.90;;;;;;5006271;28;20874;-75
2021/12/15 12:48:49;;;;;;;6.40;5.95;;;6.90;99.90;;;;;;4990063;28;20214;-74
2021/12/15 12:59:44;;;;;;;4.72;4.38;;;6.80;99.90;;;;;;4996183;28;20682;-74
2021/12/15 13:02:40;;;;;;;4.70;4.40;;;6.70;99.90;;;;;;5009017;28;20205;-75
2021/12/15 13:05:28;;;;;;;3.88;3.63;;;6.70;99.90;;;;;;5010464;28;20276;-74
2021/12/15 13:07:58;;;;;;;5.22;4.82;;;6.70;99.90;;;;;;5005273;28;20194;-75
2021/12/15 13:10:53;;;;;;;4.88;4.47;;;6.80;99.90;;;;;;5013285;28;20202;-75
2021/12/15 13:13:22;;;;;;;5.65;5.25;;;6.90;99.90;;;;;;5009551;28;20195;-75
2021/12/15 13:15:57;;;;;;;5.13;4.80;;;6.90;99.90;;;;;;5012320;28;20229;-74
2021/12/15 13:18:26;;;;;;;4.80;4.50;;;7.00;99.90;;;;;;5008860;28;20653;-75
2021/12/15 13:21:00;;;;;;;4.85;4.55;;;7.00;99.90;;;;;;4998444;28;20217;-75
2021/12/15 13:23:46;;;;;;;4.20;3.90;;;7.00;99.90;;;;;;5009797;28;20211;-75
2021/12/15 13:29:22;;;;;;;5.15;4.85;;;6.80;99.90;;;;;;5008048;28;20286;-74
2021/12/15 13:31:57;;;;;;;5.00;4.70;;;6.80;99.90;;;;;;5003147;28;20276;-74
2021/12/15 13:34:39;;;;;;;5.25;4.85;;;6.90;99.90;;;;;;5009349;28;20218;-77
2021/12/15 13:37:06;;;;;;;5.30;4.90;;;6.90;99.90;;;;;;5002762;28;20219;-75
2021/12/15 13:39:45;;;;;;;4.40;4.10;;;6.90;99.90;;;;;;5009976;28;20199;-80
2021/12/15 13:42:33;;;;;;;4.57;4.28;;;6.90;99.90;;;;;;5009376;28;20198;-79
2021/12/15 13:45:00;;;;;;;5.18;4.80;;;6.90;99.90;;;;;;5010811;28;20689;-79
2021/12/15 13:47:29;;;;;;;4.53;4.22;;;6.90;99.90;;;;;;5011769;28;20238;-79
2021/12/15 13:49:58;;;;;;;5.10;4.70;;;6.80;99.90;;;;;;5007385;28;20285;-73
2021/12/15 13:52:32;;;;;;;4.65;4.35;;;6.70;99.90;;;;;;5005528;28;20195;-74
2021/12/15 13:55:25;;;;;;;4.50;4.20;;;6.70;99.90;;;;;;5007207;28;20795;-74
2021/12/15 13:58:18;;;;;;;4.55;4.25;;;6.80;99.90;;;;;;4999374;28;20194;-73
2021/12/15 14:01:14;;;;;;;4.60;4.30;;;6.70;99.90;;;;;;5010350;28;20198;-74
2021/12/15 14:03:49;;;;;;;5.00;4.65;;;6.70;99.90;;;;;;5009659;28;20226;-74
2021/12/15 14:06:18;;;;;;;5.20;4.88;;;6.60;99.90;;;;;;5005973;28;20558;-85
2021/12/15 14:08:49;;;;;;;5.10;4.80;;;6.60;99.90;;;;;;5004164;28;20198;-74
2021/12/15 14:11:21;;;;;;;4.75;4.35;;;6.60;99.90;;;;;;5005580;28;20208;-73
2021/12/15 14:13:55;;;;;;;4.93;4.63;;;6.60;99.90;;;;;;5001738;28;20645;-73